sensor_id;sensor_type;location;lat;lon;timestamp;pressure;altitude;pressure_sealevel;temperature;humidity
11041;BME280;5573;49.592;8.662;2023-05-24T00:00:26;100358.38;;;9.52;78.49
11041;BME280;5573;49.592;8.662;2023-05-24T00:02:54;100357.09;;;9.48;76.22
11041;BME280;5573;49.592;8.662;2023-05-24T00:05:23;100351.34;;;9.44;77.26
11041;BME280;5573;49.592;8.662;2023-05-24T00:07:51;100341.00;;;9.35;78.15
11041;BME280;5573;49.592;8.662;2023-05-24T00:10:19;100347.16;;;9.56;73.32
11041;BME280;5573;49.592;8.662;2023-05-24T00:12:47;100346.13;;;9.57;76.10
11041;BME280;5573;49.592;8.662;2023-05-24T00:15:17;100348.66;;;9.65;75.26
11041;BME280;5573;49.592;8.662;2023-05-24T00:17:45;100349.91;;;9.69;74.58
11041;BME280;5573;49.592;8.662;2023-05-24T00:20:13;100342.19;;;9.74;73.46
11041;BME280;5573;49.592;8.662;2023-05-24T00:22:41;100343.91;;;9.82;71.83
11041;BME280;5573;49.592;8.662;2023-05-24T00:25:09;100343.03;;;9.75;74.42
11041;BME280;5573;49.592;8.662;2023-05-24T00:27:37;100347.78;;;9.58;77.25
11041;BME280;5573;49.592;8.662;2023-05-24T00:30:07;100331.50;;;9.47;76.10
11041;BME280;5573;49.592;8.662;2023-05-24T00:32:36;100342.66;;;9.36;75.72
11041;BME280;5573;49.592;8.662;2023-05-24T00:35:04;100336.00;;;9.25;77.57
11041;BME280;5573;49.592;8.662;2023-05-24T00:37:32;100337.84;;;9.24;78.88
11041;BME280;5573;49.592;8.662;2023-05-24T00:40:00;100337.22;;;9.22;78.36
11041;BME280;5573;49.592;8.662;2023-05-24T00:42:29;100328.59;;;8.99;78.09
11041;BME280;5573;49.592;8.662;2023-05-24T00:44:57;100318.56;;;9.01;79.65
11041;BME280;5573;49.592;8.662;2023-05-24T00:47:25;100322.28;;;9.00;80.02
11041;BME280;5573;49.592;8.662;2023-05-24T00:49:54;100320.09;;;8.89;80.39
11041;BME280;5573;49.592;8.662;2023-05-24T00:52:22;100314.78;;;8.89;80.43
11041;BME280;5573;49.592;8.662;2023-05-24T00:54:50;100304.50;;;8.86;79.56
11041;BME280;5573;49.592;8.662;2023-05-24T00:57:19;100310.22;;;8.83;78.66
11041;BME280;5573;49.592;8.662;2023-05-24T00:59:47;100305.72;;;8.84;79.42
11041;BME280;5573;49.592;8.662;2023-05-24T01:02:15;100286.72;;;8.65;80.91
11041;BME280;5573;49.592;8.662;2023-05-24T01:04:45;100312.03;;;8.83;79.37
11041;BME280;5573;49.592;8.662;2023-05-24T01:07:22;100311.69;;;8.86;79.03
11041;BME280;5573;49.592;8.662;2023-05-24T01:10:06;100304.59;;;8.93;79.21
11041;BME280;5573;49.592;8.662;2023-05-24T01:12:48;100309.94;;;8.93;79.26
11041;BME280;5573;49.592;8.662;2023-05-24T01:15:23;100316.06;;;8.93;79.89
11041;BME280;5573;49.592;8.662;2023-05-24T01:17:59;100322.88;;;9.02;79.37
11041;BME280;5573;49.592;8.662;2023-05-24T01:20:32;100329.25;;;9.22;76.63
11041;BME280;5573;49.592;8.662;2023-05-24T01:23:15;100323.84;;;9.16;76.23
11041;BME280;5573;49.592;8.662;2023-05-24T01:26:02;100324.78;;;9.08;77.71
11041;BME280;5573;49.592;8.662;2023-05-24T01:28:35;100322.34;;;9.07;77.21
11041;BME280;5573;49.592;8.662;2023-05-24T01:31:04;100325.88;;;9.14;76.05
11041;BME280;5573;49.592;8.662;2023-05-24T01:33:32;100324.94;;;9.21;75.93
11041;BME280;5573;49.592;8.662;2023-05-24T01:36:00;100325.75;;;9.22;76.55
11041;BME280;5573;49.592;8.662;2023-05-24T01:38:28;100331.03;;;9.15;77.51
11041;BME280;5573;49.592;8.662;2023-05-24T01:41:00;100324.50;;;9.18;78.16
11041;BME280;5573;49.592;8.662;2023-05-24T01:43:37;100325.00;;;9.07;75.57
11041;BME280;5573;49.592;8.662;2023-05-24T01:46:14;100337.00;;;9.24;75.26
11041;BME280;5573;49.592;8.662;2023-05-24T01:48:53;100320.16;;;9.38;72.70
11041;BME280;5573;49.592;8.662;2023-05-24T01:51:30;100334.72;;;9.42;73.63
11041;BME280;5573;49.592;8.662;2023-05-24T01:54:03;100336.91;;;9.32;74.19
11041;BME280;5573;49.592;8.662;2023-05-24T01:56:33;100335.19;;;9.24;73.94
11041;BME280;5573;49.592;8.662;2023-05-24T01:59:05;100333.78;;;9.29;73.16
11041;BME280;5573;49.592;8.662;2023-05-24T02:01:34;100333.19;;;9.27;73.97
11041;BME280;5573;49.592;8.662;2023-05-24T02:04:02;100339.00;;;9.37;72.52
11041;BME280;5573;49.592;8.662;2023-05-24T02:06:30;100338.50;;;9.27;73.48
11041;BME280;5573;49.592;8.662;2023-05-24T02:08:58;100335.25;;;9.31;73.62
11041;BME280;5573;49.592;8.662;2023-05-24T02:11:26;100342.53;;;9.44;71.33
11041;BME280;5573;49.592;8.662;2023-05-24T02:13:54;100330.16;;;9.57;71.36
11041;BME280;5573;49.592;8.662;2023-05-24T02:16:23;100333.66;;;9.58;73.81
11041;BME280;5573;49.592;8.662;2023-05-24T02:18:52;100333.66;;;9.58;73.68
11041;BME280;5573;49.592;8.662;2023-05-24T02:21:20;100335.19;;;9.67;72.09
11041;BME280;5573;49.592;8.662;2023-05-24T02:23:49;100341.38;;;9.74;72.82
11041;BME280;5573;49.592;8.662;2023-05-24T02:26:16;100341.81;;;9.78;71.87
11041;BME280;5573;49.592;8.662;2023-05-24T02:28:45;100306.66;;;9.61;71.77
11041;BME280;5573;49.592;8.662;2023-05-24T02:31:13;100334.00;;;9.76;72.99
11041;BME280;5573;49.592;8.662;2023-05-24T02:33:43;100336.72;;;9.83;71.19
11041;BME280;5573;49.592;8.662;2023-05-24T02:36:10;100335.09;;;9.82;72.02
11041;BME280;5573;49.592;8.662;2023-05-24T02:38:38;100338.19;;;9.85;69.23
11041;BME280;5573;49.592;8.662;2023-05-24T02:41:06;100340.63;;;9.87;70.20
11041;BME280;5573;49.592;8.662;2023-05-24T02:43:35;100332.03;;;9.85;70.26
11041;BME280;5573;49.592;8.662;2023-05-24T02:46:02;100332.59;;;9.80;71.69
11041;BME280;5573;49.592;8.662;2023-05-24T02:48:30;100334.06;;;9.83;72.27
11041;BME280;5573;49.592;8.662;2023-05-24T02:51:00;100329.81;;;9.88;71.18
11041;BME280;5573;49.592;8.662;2023-05-24T02:53:29;100329.63;;;9.90;71.63
11041;BME280;5573;49.592;8.662;2023-05-24T02:55:57;100333.28;;;9.89;70.34
11041;BME280;5573;49.592;8.662;2023-05-24T02:58:28;100326.31;;;9.88;70.48
11041;BME280;5573;49.592;8.662;2023-05-24T03:00:57;100332.88;;;9.85;70.17
11041;BME280;5573;49.592;8.662;2023-05-24T03:03:25;100322.97;;;9.79;69.91
11041;BME280;5573;49.592;8.662;2023-05-24T03:05:53;100326.97;;;9.90;68.96
11041;BME280;5573;49.592;8.662;2023-05-24T03:08:22;100336.53;;;9.84;71.12
11041;BME280;5573;49.592;8.662;2023-05-24T03:10:52;100334.44;;;9.80;71.07
11041;BME280;5573;49.592;8.662;2023-05-24T03:13:20;100331.16;;;9.78;71.32
11041;BME280;5573;49.592;8.662;2023-05-24T03:15:48;100333.19;;;9.75;71.33
11041;BME280;5573;49.592;8.662;2023-05-24T03:18:16;100335.63;;;9.70;71.84
11041;BME280;5573;49.592;8.662;2023-05-24T03:20:44;100333.56;;;9.72;70.72
11041;BME280;5573;49.592;8.662;2023-05-24T03:23:12;100332.75;;;9.72;71.31
11041;BME280;5573;49.592;8.662;2023-05-24T03:25:42;100339.03;;;9.64;73.30
11041;BME280;5573;49.592;8.662;2023-05-24T03:28:10;100339.03;;;9.64;71.77
11041;BME280;5573;49.592;8.662;2023-05-24T03:30:41;100338.97;;;9.58;69.99
11041;BME280;5573;49.592;8.662;2023-05-24T03:33:09;100337.00;;;9.66;71.76
11041;BME280;5573;49.592;8.662;2023-05-24T03:35:37;100331.56;;;9.53;72.34
11041;BME280;5573;49.592;8.662;2023-05-24T03:38:05;100342.78;;;9.49;72.98
11041;BME280;5573;49.592;8.662;2023-05-24T03:40:36;100345.06;;;9.52;73.39
11041;BME280;5573;49.592;8.662;2023-05-24T03:43:10;100346.84;;;9.45;74.06
11041;BME280;5573;49.592;8.662;2023-05-24T03:45:47;100342.53;;;9.44;71.95
11041;BME280;5573;49.592;8.662;2023-05-24T03:48:15;100337.78;;;9.39;74.84
11041;BME280;5573;49.592;8.662;2023-05-24T03:50:43;100342.28;;;9.39;73.21
11041;BME280;5573;49.592;8.662;2023-05-24T03:53:11;100336.66;;;9.48;74.20
11041;BME280;5573;49.592;8.662;2023-05-24T03:55:39;100337.25;;;9.50;74.25
11041;BME280;5573;49.592;8.662;2023-05-24T03:58:07;100328.66;;;9.48;71.44
11041;BME280;5573;49.592;8.662;2023-05-24T04:00:36;100327.28;;;9.52;71.02
11041;BME280;5573;49.592;8.662;2023-05-24T04:03:04;100334.00;;;9.48;72.13
11041;BME280;5573;49.592;8.662;2023-05-24T04:05:33;100343.41;;;9.51;72.93
11041;BME280;5573;49.592;8.662;2023-05-24T04:08:00;100341.44;;;9.38;71.50
11041;BME280;5573;49.592;8.662;2023-05-24T04:10:29;100339.53;;;9.53;68.13
11041;BME280;5573;49.592;8.662;2023-05-24T04:12:56;100336.38;;;9.43;71.65
11041;BME280;5573;49.592;8.662;2023-05-24T04:15:26;100346.75;;;9.38;69.61
11041;BME280;5573;49.592;8.662;2023-05-24T04:17:55;100346.59;;;9.40;72.43
11041;BME280;5573;49.592;8.662;2023-05-24T04:20:23;100350.13;;;9.25;73.16
11041;BME280;5573;49.592;8.662;2023-05-24T04:22:53;100352.63;;;9.12;72.96
11041;BME280;5573;49.592;8.662;2023-05-24T04:25:22;100347.47;;;9.04;75.79
11041;BME280;5573;49.592;8.662;2023-05-24T04:27:50;100341.56;;;9.09;75.64
11041;BME280;5573;49.592;8.662;2023-05-24T04:30:18;100343.81;;;9.12;74.95
11041;BME280;5573;49.592;8.662;2023-05-24T04:32:46;100344.41;;;9.07;74.41
11041;BME280;5573;49.592;8.662;2023-05-24T04:35:16;100352.41;;;9.07;74.24
11041;BME280;5573;49.592;8.662;2023-05-24T04:37:44;100352.50;;;8.99;75.93
11041;BME280;5573;49.592;8.662;2023-05-24T04:40:15;100356.22;;;9.05;75.79
11041;BME280;5573;49.592;8.662;2023-05-24T04:42:42;100355.72;;;8.95;76.58
11041;BME280;5573;49.592;8.662;2023-05-24T04:45:10;100365.63;;;9.22;74.28
11041;BME280;5573;49.592;8.662;2023-05-24T04:47:39;100354.13;;;9.15;75.45
11041;BME280;5573;49.592;8.662;2023-05-24T04:50:08;100353.03;;;9.31;74.73
11041;BME280;5573;49.592;8.662;2023-05-24T04:52:37;100351.19;;;9.31;74.95
11041;BME280;5573;49.592;8.662;2023-05-24T04:55:06;100349.81;;;9.35;74.21
11041;BME280;5573;49.592;8.662;2023-05-24T04:57:34;100362.09;;;9.57;69.68
11041;BME280;5573;49.592;8.662;2023-05-24T05:00:02;100366.09;;;9.47;71.73
11041;BME280;5573;49.592;8.662;2023-05-24T05:02:31;100365.50;;;9.51;69.96
11041;BME280;5573;49.592;8.662;2023-05-24T05:04:59;100364.88;;;9.49;72.42
11041;BME280;5573;49.592;8.662;2023-05-24T05:07:26;100358.31;;;9.45;71.03
11041;BME280;5573;49.592;8.662;2023-05-24T05:09:55;100362.59;;;9.46;70.44
11041;BME280;5573;49.592;8.662;2023-05-24T05:12:23;100360.72;;;9.40;70.83
11041;BME280;5573;49.592;8.662;2023-05-24T05:14:51;100367.34;;;9.51;72.00
11041;BME280;5573;49.592;8.662;2023-05-24T05:17:19;100380.19;;;9.47;71.58
11041;BME280;5573;49.592;8.662;2023-05-24T05:19:47;100382.75;;;9.55;69.98
11041;BME280;5573;49.592;8.662;2023-05-24T05:22:15;100377.53;;;9.47;72.55
11041;BME280;5573;49.592;8.662;2023-05-24T05:24:43;100378.56;;;9.46;71.92
11041;BME280;5573;49.592;8.662;2023-05-24T05:27:12;100383.13;;;9.52;70.66
11041;BME280;5573;49.592;8.662;2023-05-24T05:29:40;100381.22;;;9.67;69.31
11041;BME280;5573;49.592;8.662;2023-05-24T05:32:08;100382.16;;;9.81;69.62
11041;BME280;5573;49.592;8.662;2023-05-24T05:34:36;100387.34;;;9.89;69.11
11041;BME280;5573;49.592;8.662;2023-05-24T05:37:04;100371.28;;;10.04;67.72
11041;BME280;5573;49.592;8.662;2023-05-24T05:39:32;100382.03;;;10.17;67.82
11041;BME280;5573;49.592;8.662;2023-05-24T05:42:00;100393.38;;;10.26;66.56
11041;BME280;5573;49.592;8.662;2023-05-24T05:44:29;100371.59;;;10.15;66.55
11041;BME280;5573;49.592;8.662;2023-05-24T05:46:57;100388.88;;;10.26;64.42
11041;BME280;5573;49.592;8.662;2023-05-24T05:49:24;100387.22;;;10.25;65.05
11041;BME280;5573;49.592;8.662;2023-05-24T05:51:52;100389.75;;;10.33;64.10
11041;BME280;5573;49.592;8.662;2023-05-24T05:54:20;100386.22;;;10.26;64.83
11041;BME280;5573;49.592;8.662;2023-05-24T05:56:48;100395.84;;;10.27;65.20
11041;BME280;5573;49.592;8.662;2023-05-24T05:59:16;100387.63;;;10.22;66.66
11041;BME280;5573;49.592;8.662;2023-05-24T06:01:46;100389.06;;;10.25;66.45
11041;BME280;5573;49.592;8.662;2023-05-24T06:04:14;100398.53;;;10.27;65.12
11041;BME280;5573;49.592;8.662;2023-05-24T06:06:43;100394.13;;;10.47;64.08
11041;BME280;5573;49.592;8.662;2023-05-24T06:09:14;100396.81;;;10.54;63.94
11041;BME280;5573;49.592;8.662;2023-05-24T06:11:43;100393.97;;;10.55;63.00
11041;BME280;5573;49.592;8.662;2023-05-24T06:14:11;100403.41;;;10.58;64.82
11041;BME280;5573;49.592;8.662;2023-05-24T06:16:45;100401.66;;;10.72;62.54
11041;BME280;5573;49.592;8.662;2023-05-24T06:19:13;100396.34;;;10.72;61.08
11041;BME280;5573;49.592;8.662;2023-05-24T06:21:42;100399.00;;;10.72;63.19
11041;BME280;5573;49.592;8.662;2023-05-24T06:24:14;100400.28;;;10.89;61.10
11041;BME280;5573;49.592;8.662;2023-05-24T06:26:46;100394.53;;;10.85;61.36
11041;BME280;5573;49.592;8.662;2023-05-24T06:29:14;100399.69;;;10.87;63.44
11041;BME280;5573;49.592;8.662;2023-05-24T06:31:42;100393.78;;;10.98;61.04
11041;BME280;5573;49.592;8.662;2023-05-24T06:34:11;100401.13;;;10.96;63.00
11041;BME280;5573;49.592;8.662;2023-05-24T06:36:42;100408.59;;;11.13;60.61
11041;BME280;5573;49.592;8.662;2023-05-24T06:39:12;100400.44;;;11.28;58.74
11041;BME280;5573;49.592;8.662;2023-05-24T06:41:39;100387.31;;;11.20;59.12
11041;BME280;5573;49.592;8.662;2023-05-24T06:44:08;100407.59;;;11.21;61.61
11041;BME280;5573;49.592;8.662;2023-05-24T06:46:35;100406.97;;;11.19;59.32
11041;BME280;5573;49.592;8.662;2023-05-24T06:49:03;100395.56;;;11.51;58.29
11041;BME280;5573;49.592;8.662;2023-05-24T06:51:33;100411.81;;;11.69;60.54
11041;BME280;5573;49.592;8.662;2023-05-24T06:54:00;100418.81;;;12.49;55.95
11041;BME280;5573;49.592;8.662;2023-05-24T06:56:29;100414.56;;;13.50;53.00
11041;BME280;5573;49.592;8.662;2023-05-24T06:58:58;100420.25;;;13.92;51.55
11041;BME280;5573;49.592;8.662;2023-05-24T07:01:26;100424.59;;;14.11;49.99
11041;BME280;5573;49.592;8.662;2023-05-24T07:03:54;100420.13;;;14.30;49.74
11041;BME280;5573;49.592;8.662;2023-05-24T07:06:22;100431.91;;;14.90;48.02
11041;BME280;5573;49.592;8.662;2023-05-24T07:08:51;100441.53;;;16.05;45.80
11041;BME280;5573;49.592;8.662;2023-05-24T07:11:19;100431.72;;;16.45;42.85
11041;BME280;5573;49.592;8.662;2023-05-24T07:13:47;100436.66;;;16.25;44.43
11041;BME280;5573;49.592;8.662;2023-05-24T07:16:15;100442.63;;;16.50;42.66
11041;BME280;5573;49.592;8.662;2023-05-24T07:18:43;100435.97;;;16.65;43.41
11041;BME280;5573;49.592;8.662;2023-05-24T07:21:11;100445.81;;;16.71;44.02
11041;BME280;5573;49.592;8.662;2023-05-24T07:23:38;100439.00;;;16.45;42.78
11041;BME280;5573;49.592;8.662;2023-05-24T07:26:08;100435.34;;;16.97;42.25
11041;BME280;5573;49.592;8.662;2023-05-24T07:28:36;100438.28;;;16.49;45.24
11041;BME280;5573;49.592;8.662;2023-05-24T07:31:07;100439.13;;;16.85;43.16
11041;BME280;5573;49.592;8.662;2023-05-24T07:33:35;100436.44;;;16.85;41.39
11041;BME280;5573;49.592;8.662;2023-05-24T07:36:04;100423.72;;;15.03;45.66
11041;BME280;5573;49.592;8.662;2023-05-24T07:38:32;100429.47;;;15.55;46.57
11041;BME280;5573;49.592;8.662;2023-05-24T07:41:02;100428.91;;;16.17;43.10
11041;BME280;5573;49.592;8.662;2023-05-24T07:43:31;100439.44;;;17.00;40.75
11041;BME280;5573;49.592;8.662;2023-05-24T07:45:59;100441.56;;;16.86;41.22
11041;BME280;5573;49.592;8.662;2023-05-24T07:48:27;100430.88;;;15.98;44.95
11041;BME280;5573;49.592;8.662;2023-05-24T07:50:55;100431.28;;;16.25;44.00
11041;BME280;5573;49.592;8.662;2023-05-24T07:53:22;100434.69;;;16.44;43.86
11041;BME280;5573;49.592;8.662;2023-05-24T07:55:50;100422.88;;;16.57;42.78
11041;BME280;5573;49.592;8.662;2023-05-24T07:58:18;100430.47;;;16.48;42.53
11041;BME280;5573;49.592;8.662;2023-05-24T08:00:47;100428.00;;;15.40;45.40
11041;BME280;5573;49.592;8.662;2023-05-24T08:03:15;100420.91;;;15.76;45.18
11041;BME280;5573;49.592;8.662;2023-05-24T08:05:43;100417.53;;;15.80;46.42
11041;BME280;5573;49.592;8.662;2023-05-24T08:08:11;100426.94;;;16.13;44.96
11041;BME280;5573;49.592;8.662;2023-05-24T08:10:39;100414.31;;;15.42;48.35
11041;BME280;5573;49.592;8.662;2023-05-24T08:13:07;100407.19;;;16.07;45.32
11041;BME280;5573;49.592;8.662;2023-05-24T08:15:35;100420.66;;;15.66;45.13
11041;BME280;5573;49.592;8.662;2023-05-24T08:18:04;100428.44;;;15.56;46.30
11041;BME280;5573;49.592;8.662;2023-05-24T08:20:32;100431.69;;;15.10;47.72
11041;BME280;5573;49.592;8.662;2023-05-24T08:23:02;100432.06;;;14.77;47.46
11041;BME280;5573;49.592;8.662;2023-05-24T08:25:30;100432.00;;;14.83;47.37
11041;BME280;5573;49.592;8.662;2023-05-24T08:27:58;100435.41;;;15.09;46.97
11041;BME280;5573;49.592;8.662;2023-05-24T08:30:26;100434.41;;;15.39;48.34
11041;BME280;5573;49.592;8.662;2023-05-24T08:32:54;100433.41;;;15.04;46.69
11041;BME280;5573;49.592;8.662;2023-05-24T08:35:25;100442.19;;;14.75;47.77
11041;BME280;5573;49.592;8.662;2023-05-24T08:37:53;100444.84;;;14.56;47.14
11041;BME280;5573;49.592;8.662;2023-05-24T08:40:20;100447.50;;;14.07;47.87
11041;BME280;5573;49.592;8.662;2023-05-24T08:42:50;100444.13;;;14.18;49.57
11041;BME280;5573;49.592;8.662;2023-05-24T08:45:20;100446.50;;;14.57;46.92
11041;BME280;5573;49.592;8.662;2023-05-24T08:47:51;100431.91;;;14.90;47.90
11041;BME280;5573;49.592;8.662;2023-05-24T08:50:19;100441.78;;;14.96;47.16
11041;BME280;5573;49.592;8.662;2023-05-24T08:52:48;100438.91;;;15.27;45.77
11041;BME280;5573;49.592;8.662;2023-05-24T08:55:18;100443.72;;;15.55;44.17
11041;BME280;5573;49.592;8.662;2023-05-24T08:57:47;100436.38;;;15.32;46.05
11041;BME280;5573;49.592;8.662;2023-05-24T09:00:16;100439.19;;;15.19;43.33
11041;BME280;5573;49.592;8.662;2023-05-24T09:02:45;100443.03;;;15.41;44.40
11041;BME280;5573;49.592;8.662;2023-05-24T09:05:14;100442.09;;;15.36;45.81
11041;BME280;5573;49.592;8.662;2023-05-24T09:07:44;100448.06;;;15.20;43.47
11041;BME280;5573;49.592;8.662;2023-05-24T09:10:13;100447.88;;;15.03;43.12
11041;BME280;5573;49.592;8.662;2023-05-24T09:12:44;100442.38;;;15.76;44.27
11041;BME280;5573;49.592;8.662;2023-05-24T09:15:12;100444.19;;;15.93;43.16
11041;BME280;5573;49.592;8.662;2023-05-24T09:17:40;100449.47;;;16.00;42.58
11041;BME280;5573;49.592;8.662;2023-05-24T09:20:08;100450.38;;;15.94;40.17
11041;BME280;5573;49.592;8.662;2023-05-24T09:22:40;100446.19;;;15.98;40.48
11041;BME280;5573;49.592;8.662;2023-05-24T09:25:09;100440.66;;;16.58;41.75
11041;BME280;5573;49.592;8.662;2023-05-24T09:27:41;100443.91;;;16.48;38.95
11041;BME280;5573;49.592;8.662;2023-05-24T09:30:13;100444.38;;;16.33;39.78
11041;BME280;5573;49.592;8.662;2023-05-24T09:32:53;100439.44;;;16.30;36.32
11041;BME280;5573;49.592;8.662;2023-05-24T09:35:21;100436.88;;;16.47;38.58
11041;BME280;5573;49.592;8.662;2023-05-24T09:37:56;100446.25;;;16.68;43.12
11041;BME280;5573;49.592;8.662;2023-05-24T09:40:26;100441.25;;;16.60;39.49
11041;BME280;5573;49.592;8.662;2023-05-24T09:43:06;100430.13;;;16.44;42.68
11041;BME280;5573;49.592;8.662;2023-05-24T09:45:41;100446.59;;;16.25;41.24
11041;BME280;5573;49.592;8.662;2023-05-24T09:48:10;100438.72;;;16.00;40.53
11041;BME280;5573;49.592;8.662;2023-05-24T09:50:39;100429.22;;;15.74;41.73
11041;BME280;5573;49.592;8.662;2023-05-24T09:53:07;100432.50;;;15.10;44.07
11041;BME280;5573;49.592;8.662;2023-05-24T09:55:35;100442.94;;;15.00;44.64
11041;BME280;5573;49.592;8.662;2023-05-24T09:58:06;100438.75;;;14.86;46.30
11041;BME280;5573;49.592;8.662;2023-05-24T10:00:37;100436.25;;;15.39;44.92
11041;BME280;5573;49.592;8.662;2023-05-24T10:03:08;100437.44;;;15.43;42.54
11041;BME280;5573;49.592;8.662;2023-05-24T10:05:37;100441.63;;;15.39;44.56
11041;BME280;5573;49.592;8.662;2023-05-24T10:08:05;100440.69;;;15.51;43.61
11041;BME280;5573;49.592;8.662;2023-05-24T10:10:35;100436.84;;;15.89;43.62
11041;BME280;5573;49.592;8.662;2023-05-24T10:13:04;100447.19;;;15.74;40.45
11041;BME280;5573;49.592;8.662;2023-05-24T10:15:33;100455.22;;;15.44;42.60
11041;BME280;5573;49.592;8.662;2023-05-24T10:18:00;100443.69;;;15.73;44.47
11041;BME280;5573;49.592;8.662;2023-05-24T10:20:37;100443.00;;;15.78;40.22
11041;BME280;5573;49.592;8.662;2023-05-24T10:23:08;100444.81;;;15.66;40.94
11041;BME280;5573;49.592;8.662;2023-05-24T10:25:44;100432.66;;;15.45;42.09
11041;BME280;5573;49.592;8.662;2023-05-24T10:28:15;100433.84;;;16.20;41.84
11041;BME280;5573;49.592;8.662;2023-05-24T10:30:51;100440.03;;;16.79;45.06
11041;BME280;5573;49.592;8.662;2023-05-24T10:33:22;100435.13;;;16.87;42.86
11041;BME280;5573;49.592;8.662;2023-05-24T10:35:51;100412.09;;;16.80;43.48
11041;BME280;5573;49.592;8.662;2023-05-24T10:38:21;100410.22;;;16.45;41.53
11041;BME280;5573;49.592;8.662;2023-05-24T10:40:50;100420.97;;;15.99;41.58
11041;BME280;5573;49.592;8.662;2023-05-24T10:43:20;100415.19;;;15.84;45.12
11041;BME280;5573;49.592;8.662;2023-05-24T10:45:48;100413.59;;;16.52;46.20
11041;BME280;5573;49.592;8.662;2023-05-24T10:48:57;100416.25;;;17.11;43.54
11041;BME280;5573;49.592;8.662;2023-05-24T10:51:33;100410.34;;;17.25;37.31
11041;BME280;5573;49.592;8.662;2023-05-24T10:54:16;100413.47;;;16.94;39.34
11041;BME280;5573;49.592;8.662;2023-05-24T10:56:46;100414.06;;;16.96;42.59
11041;BME280;5573;49.592;8.662;2023-05-24T10:59:23;100413.97;;;16.79;38.48
11041;BME280;5573;49.592;8.662;2023-05-24T11:01:55;100412.56;;;16.77;38.61
11041;BME280;5573;49.592;8.662;2023-05-24T11:04:24;100405.38;;;17.06;41.35
11041;BME280;5573;49.592;8.662;2023-05-24T11:06:54;100409.28;;;17.26;40.22
11041;BME280;5573;49.592;8.662;2023-05-24T11:09:23;100410.78;;;17.62;39.13
11041;BME280;5573;49.592;8.662;2023-05-24T11:11:54;100413.88;;;17.42;36.04
11041;BME280;5573;49.592;8.662;2023-05-24T11:14:26;100415.00;;;17.30;36.29
11041;BME280;5573;49.592;8.662;2023-05-24T11:16:57;100407.66;;;16.74;37.29
11041;BME280;5573;49.592;8.662;2023-05-24T11:19:31;100403.94;;;16.63;38.07
11041;BME280;5573;49.592;8.662;2023-05-24T11:22:01;100386.03;;;16.69;39.02
11041;BME280;5573;49.592;8.662;2023-05-24T11:24:29;100408.22;;;17.56;37.43
11041;BME280;5573;49.592;8.662;2023-05-24T11:26:58;100414.47;;;17.44;38.57
11041;BME280;5573;49.592;8.662;2023-05-24T11:29:29;100397.84;;;17.48;39.86
11041;BME280;5573;49.592;8.662;2023-05-24T11:31:58;100395.69;;;17.61;38.53
11041;BME280;5573;49.592;8.662;2023-05-24T11:34:30;100391.59;;;17.59;35.67
11041;BME280;5573;49.592;8.662;2023-05-24T11:36:59;100394.56;;;17.45;38.57
11041;BME280;5573;49.592;8.662;2023-05-24T11:39:28;100388.00;;;17.13;37.24
11041;BME280;5573;49.592;8.662;2023-05-24T11:41:57;100382.50;;;17.48;36.06
11041;BME280;5573;49.592;8.662;2023-05-24T11:44:28;100387.25;;;17.29;39.84
11041;BME280;5573;49.592;8.662;2023-05-24T11:46:58;100388.28;;;18.02;39.81
11041;BME280;5573;49.592;8.662;2023-05-24T11:49:26;100399.38;;;18.38;37.82
11041;BME280;5573;49.592;8.662;2023-05-24T11:51:55;100388.09;;;18.25;38.24
11041;BME280;5573;49.592;8.662;2023-05-24T11:54:24;100385.34;;;18.20;39.37
11041;BME280;5573;49.592;8.662;2023-05-24T11:56:53;100377.31;;;18.41;38.35
11041;BME280;5573;49.592;8.662;2023-05-24T11:59:23;100375.31;;;18.15;37.29
11041;BME280;5573;49.592;8.662;2023-05-24T12:01:57;100377.47;;;18.35;37.32
11041;BME280;5573;49.592;8.662;2023-05-24T12:04:28;100373.84;;;18.46;39.81
11041;BME280;5573;49.592;8.662;2023-05-24T12:06:56;100360.25;;;18.74;36.99
11041;BME280;5573;49.592;8.662;2023-05-24T12:09:24;100376.31;;;18.48;33.33
11041;BME280;5573;49.592;8.662;2023-05-24T12:11:53;100317.06;;;17.98;36.45
11041;BME280;5573;49.592;8.662;2023-05-24T12:14:24;100375.22;;;18.65;33.55
11041;BME280;5573;49.592;8.662;2023-05-24T12:16:55;100367.06;;;18.43;30.87
11041;BME280;5573;49.592;8.662;2023-05-24T12:19:25;100371.59;;;18.38;33.18
11041;BME280;5573;49.592;8.662;2023-05-24T12:21:59;100370.63;;;18.27;35.10
11041;BME280;5573;49.592;8.662;2023-05-24T12:24:30;100371.16;;;18.46;32.91
11041;BME280;5573;49.592;8.662;2023-05-24T12:26:59;100365.66;;;18.58;35.72
11041;BME280;5573;49.592;8.662;2023-05-24T12:29:31;100374.47;;;18.70;33.75
11041;BME280;5573;49.592;8.662;2023-05-24T12:31:59;100370.75;;;18.54;36.02
11041;BME280;5573;49.592;8.662;2023-05-24T12:34:28;100369.78;;;18.43;36.76
11041;BME280;5573;49.592;8.662;2023-05-24T12:36:56;100356.53;;;18.42;36.58
11041;BME280;5573;49.592;8.662;2023-05-24T12:39:25;100351.75;;;18.66;37.21
11041;BME280;5573;49.592;8.662;2023-05-24T12:41:57;100241.97;;;18.28;36.35
11041;BME280;5573;49.592;8.662;2023-05-24T12:44:28;100356.03;;;19.05;35.87
11041;BME280;5573;49.592;8.662;2023-05-24T12:46:57;100347.97;;;19.10;36.44
11041;BME280;5573;49.592;8.662;2023-05-24T12:49:25;100350.31;;;19.28;36.78
11041;BME280;5573;49.592;8.662;2023-05-24T12:51:55;100345.19;;;18.78;37.49
11041;BME280;5573;49.592;8.662;2023-05-24T12:54:25;100353.78;;;18.75;35.74
11041;BME280;5573;49.592;8.662;2023-05-24T12:56:54;100345.72;;;18.59;37.12
11041;BME280;5573;49.592;8.662;2023-05-24T12:59:24;100314.78;;;18.66;38.06
11041;BME280;5573;49.592;8.662;2023-05-24T13:01:53;100349.91;;;18.50;35.71
11041;BME280;5573;49.592;8.662;2023-05-24T13:04:22;100327.94;;;18.24;35.25
11041;BME280;5573;49.592;8.662;2023-05-24T13:06:52;100341.72;;;18.83;34.87
11041;BME280;5573;49.592;8.662;2023-05-24T13:09:21;100340.28;;;18.75;35.18
11041;BME280;5573;49.592;8.662;2023-05-24T13:11:51;100325.22;;;18.79;35.32
11041;BME280;5573;49.592;8.662;2023-05-24T13:14:19;100339.38;;;18.92;35.34
11041;BME280;5573;49.592;8.662;2023-05-24T13:16:47;100338.13;;;18.99;30.96